sensor_id;sensor_type;location;lat;lon;timestamp;P1;durP1;ratioP1;P2;durP2;ratioP2
2201;SDS011;1107;48.654;9.250;2023-03-16T06:05:02;14.10;;;11.35;;
2201;SDS011;1107;48.654;9.250;2023-03-16T06:07:29;17.70;;;11.47;;
2201;SDS011;1107;48.654;9.250;2023-03-16T06:09:57;16.85;;;11.02;;
2201;SDS011;1107;48.654;9.250;2023-03-16T06:22:12;13.15;;;11.57;;
2201;SDS011;1107;48.654;9.250;2023-03-16T06:29:33;14.93;;;11.40;;
2201;SDS011;1107;48.654;9.250;2023-03-16T06:32:01;15.55;;;12.40;;
2201;SDS011;1107;48.654;9.250;2023-03-16T06:34:28;13.63;;;12.05;;
2201;SDS011;1107;48.654;9.250;2023-03-16T06:36:55;15.52;;;11.70;;
2201;SDS011;1107;48.654;9.250;2023-03-16T06:41:49;18.25;;;12.38;;
2201;SDS011;1107;48.654;9.250;2023-03-16T06:44:16;16.20;;;12.48;;
2201;SDS011;1107;48.654;9.250;2023-03-16T06:46:43;11.43;;;10.40;;
2201;SDS011;1107;48.654;9.250;2023-03-16T06:49:11;18.05;;;12.15;;
2201;SDS011;1107;48.654;9.250;2023-03-16T06:51:38;11.73;;;10.63;;
2201;SDS011;1107;48.654;9.250;2023-03-16T06:54:05;13.65;;;11.77;;
2201;SDS011;1107;48.654;9.250;2023-03-16T06:56:32;13.35;;;11.07;;
2201;SDS011;1107;48.654;9.250;2023-03-16T06:58:59;12.20;;;10.73;;
2201;SDS011;1107;48.654;9.250;2023-03-16T07:01:26;12.45;;;11.18;;
2201;SDS011;1107;48.654;9.250;2023-03-16T07:03:53;15.63;;;10.77;;
2201;SDS011;1107;48.654;9.250;2023-03-16T07:06:22;12.87;;;10.30;;
2201;SDS011;1107;48.654;9.250;2023-03-16T07:08:49;10.47;;;9.47;;
2201;SDS011;1107;48.654;9.250;2023-03-16T07:11:15;11.57;;;9.53;;
2201;SDS011;1107;48.654;9.250;2023-03-16T07:13:42;11.30;;;10.10;;
2201;SDS011;1107;48.654;9.250;2023-03-16T07:16:09;10.30;;;9.20;;
2201;SDS011;1107;48.654;9.250;2023-03-16T07:18:37;10.87;;;9.83;;
2201;SDS011;1107;48.654;9.250;2023-03-16T07:23:32;9.90;;;9.07;;
2201;SDS011;1107;48.654;9.250;2023-03-16T07:25:59;9.57;;;8.87;;
2201;SDS011;1107;48.654;9.250;2023-03-16T07:28:26;8.53;;;8.00;;
2201;SDS011;1107;48.654;9.250;2023-03-16T07:38:14;10.20;;;9.33;;
2201;SDS011;1107;48.654;9.250;2023-03-16T07:40:42;10.20;;;9.37;;
2201;SDS011;1107;48.654;9.250;2023-03-16T07:43:09;9.73;;;9.03;;
2201;SDS011;1107;48.654;9.250;2023-03-16T07:45:36;9.10;;;8.50;;
2201;SDS011;1107;48.654;9.250;2023-03-16T07:48:03;8.63;;;8.07;;
2201;SDS011;1107;48.654;9.250;2023-03-16T07:52:57;9.30;;;8.80;;
2201;SDS011;1107;48.654;9.250;2023-03-16T07:55:24;8.20;;;7.70;;
2201;SDS011;1107;48.654;9.250;2023-03-16T07:57:52;7.30;;;6.80;;
2201;SDS011;1107;48.654;9.250;2023-03-16T08:10:08;7.57;;;7.20;;
2201;SDS011;1107;48.654;9.250;2023-03-16T08:12:36;7.13;;;6.57;;
2201;SDS011;1107;48.654;9.250;2023-03-16T08:15:05;7.53;;;7.00;;
2201;SDS011;1107;48.654;9.250;2023-03-16T08:17:34;8.00;;;7.60;;
2201;SDS011;1107;48.654;9.250;2023-03-16T09:06:47;7.87;;;7.37;;
2201;SDS011;1107;48.654;9.250;2023-03-16T09:09:15;8.03;;;7.60;;
2201;SDS011;1107;48.654;9.250;2023-03-16T09:11:42;7.40;;;7.10;;
2201;SDS011;1107;48.654;9.250;2023-03-16T09:14:09;8.03;;;7.53;;
2201;SDS011;1107;48.654;9.250;2023-03-16T09:46:24;6.57;;;6.27;;
2201;SDS011;1107;48.654;9.250;2023-03-16T09:48:52;6.67;;;6.27;;
2201;SDS011;1107;48.654;9.250;2023-03-16T09:51:22;6.40;;;6.00;;
2201;SDS011;1107;48.654;9.250;2023-03-16T09:54:02;6.23;;;5.93;;
2201;SDS011;1107;48.654;9.250;2023-03-16T09:56:41;6.43;;;6.13;;
2201;SDS011;1107;48.654;9.250;2023-03-16T09:59:11;6.33;;;6.03;;
2201;SDS011;1107;48.654;9.250;2023-03-16T10:01:42;5.70;;;5.40;;
2201;SDS011;1107;48.654;9.250;2023-03-16T10:04:21;6.17;;;5.77;;
2201;SDS011;1107;48.654;9.250;2023-03-16T12:23:36;2.90;;;2.70;;
2201;SDS011;1107;48.654;9.250;2023-03-16T12:26:07;3.10;;;2.80;;
2201;SDS011;1107;48.654;9.250;2023-03-16T12:28:37;2.50;;;2.30;;
2201;SDS011;1107;48.654;9.250;2023-03-16T12:31:09;2.37;;;2.17;;
2201;SDS011;1107;48.654;9.250;2023-03-16T12:33:43;2.60;;;2.40;;
2201;SDS011;1107;48.654;9.250;2023-03-16T12:39:12;2.47;;;2.27;;
2201;SDS011;1107;48.654;9.250;2023-03-16T12:41:46;2.30;;;2.10;;
2201;SDS011;1107;48.654;9.250;2023-03-16T12:44:27;2.57;;;2.37;;
2201;SDS011;1107;48.654;9.250;2023-03-16T12:47:02;2.87;;;2.67;;
2201;SDS011;1107;48.654;9.250;2023-03-16T12:49:37;2.57;;;2.37;;
2201;SDS011;1107;48.654;9.250;2023-03-16T12:52:06;2.53;;;2.33;;
2201;SDS011;1107;48.654;9.250;2023-03-16T12:54:35;2.37;;;2.17;;
2201;SDS011;1107;48.654;9.250;2023-03-16T12:57:03;2.67;;;2.47;;
2201;SDS011;1107;48.654;9.250;2023-03-16T12:59:37;2.40;;;2.20;;
2201;SDS011;1107;48.654;9.250;2023-03-16T13:02:08;2.57;;;2.37;;
2201;SDS011;1107;48.654;9.250;2023-03-16T13:04:40;2.80;;;2.60;;
2201;SDS011;1107;48.654;9.250;2023-03-16T13:07:15;2.70;;;2.50;;
2201;SDS011;1107;48.654;9.250;2023-03-16T13:09:46;2.40;;;2.20;;
2201;SDS011;1107;48.654;9.250;2023-03-16T13:12:22;2.50;;;2.30;;
2201;SDS011;1107;48.654;9.250;2023-03-16T13:14:53;2.70;;;2.50;;
2201;SDS011;1107;48.654;9.250;2023-03-16T13:17:25;2.37;;;2.17;;
2201;SDS011;1107;48.654;9.250;2023-03-16T13:19:57;2.67;;;2.47;;
2201;SDS011;1107;48.654;9.250;2023-03-16T13:22:28;2.97;;;2.77;;
2201;SDS011;1107;48.654;9.250;2023-03-16T13:24:58;2.60;;;2.40;;
2201;SDS011;1107;48.654;9.250;2023-03-16T13:27:39;2.40;;;2.20;;
2201;SDS011;1107;48.654;9.250;2023-03-16T13:30:16;2.50;;;2.30;;
2201;SDS011;1107;48.654;9.250;2023-03-16T13:32:45;2.60;;;2.40;;
2201;SDS011;1107;48.654;9.250;2023-03-16T13:35:13;2.30;;;2.10;;
2201;SDS011;1107;48.654;9.250;2023-03-16T13:37:42;2.60;;;2.40;;
2201;SDS011;1107;48.654;9.250;2023-03-16T13:40:17;2.53;;;2.33;;
2201;SDS011;1107;48.654;9.250;2023-03-16T13:42:47;2.43;;;2.23;;
2201;SDS011;1107;48.654;9.250;2023-03-16T13:45:19;2.90;;;2.70;;
2201;SDS011;1107;48.654;9.250;2023-03-16T13:47:48;2.20;;;2.00;;
2201;SDS011;1107;48.654;9.250;2023-03-16T13:50:16;2.60;;;2.40;;
2201;SDS011;1107;48.654;9.250;2023-03-16T13:52:49;2.40;;;2.20;;
2201;SDS011;1107;48.654;9.250;2023-03-16T13:55:22;5.00;;;2.40;;
2201;SDS011;1107;48.654;9.250;2023-03-16T13:57:54;2.60;;;2.40;;
2201;SDS011;1107;48.654;9.250;2023-03-16T14:00:23;2.50;;;2.30;;
2201;SDS011;1107;48.654;9.250;2023-03-16T14:02:52;4.27;;;2.40;;
2201;SDS011;1107;48.654;9.250;2023-03-16T14:05:21;2.30;;;2.10;;
2201;SDS011;1107;48.654;9.250;2023-03-16T14:07:50;2.60;;;2.40;;
2201;SDS011;1107;48.654;9.250;2023-03-16T14:12:52;2.33;;;2.10;;
2201;SDS011;1107;48.654;9.250;2023-03-16T14:15:20;2.20;;;2.00;;
2201;SDS011;1107;48.654;9.250;2023-03-16T14:22:46;2.40;;;2.20;;
2201;SDS011;1107;48.654;9.250;2023-03-16T14:25:17;2.20;;;2.10;;
2201;SDS011;1107;48.654;9.250;2023-03-16T14:27:47;2.50;;;2.30;;
2201;SDS011;1107;48.654;9.250;2023-03-16T14:30:25;2.53;;;2.33;;
2201;SDS011;1107;48.654;9.250;2023-03-16T14:32:53;2.55;;;2.35;;
2201;SDS011;1107;48.654;9.250;2023-03-16T14:35:24;2.70;;;2.50;;
2201;SDS011;1107;48.654;9.250;2023-03-16T14:57:38;2.50;;;2.30;;
2201;SDS011;1107;48.654;9.250;2023-03-16T15:00:07;4.20;;;2.10;;
2201;SDS011;1107;48.654;9.250;2023-03-16T15:07:33;2.50;;;2.30;;
2201;SDS011;1107;48.654;9.250;2023-03-16T15:10:04;2.50;;;2.30;;
2201;SDS011;1107;48.654;9.250;2023-03-16T15:12:34;2.83;;;2.63;;
2201;SDS011;1107;48.654;9.250;2023-03-16T15:15:04;2.60;;;2.40;;
2201;SDS011;1107;48.654;9.250;2023-03-16T15:17:42;2.60;;;2.40;;
2201;SDS011;1107;48.654;9.250;2023-03-16T15:20:13;4.07;;;2.30;;
2201;SDS011;1107;48.654;9.250;2023-03-16T15:22:41;3.00;;;2.80;;
2201;SDS011;1107;48.654;9.250;2023-03-16T15:25:17;3.50;;;3.20;;
2201;SDS011;1107;48.654;9.250;2023-03-16T15:28:00;2.50;;;2.30;;
2201;SDS011;1107;48.654;9.250;2023-03-16T15:30:28;2.40;;;2.20;;
2201;SDS011;1107;48.654;9.250;2023-03-16T15:32:55;2.43;;;2.23;;
2201;SDS011;1107;48.654;9.250;2023-03-16T15:35:23;2.43;;;2.20;;
2201;SDS011;1107;48.654;9.250;2023-03-16T15:37:51;2.67;;;2.47;;
2201;SDS011;1107;48.654;9.250;2023-03-16T15:40:19;3.10;;;2.90;;
2201;SDS011;1107;48.654;9.250;2023-03-16T15:45:16;2.73;;;2.53;;
2201;SDS011;1107;48.654;9.250;2023-03-16T15:47:45;3.90;;;2.70;;
2201;SDS011;1107;48.654;9.250;2023-03-16T15:50:13;2.83;;;2.63;;
2201;SDS011;1107;48.654;9.250;2023-03-16T15:52:43;3.43;;;2.90;;
2201;SDS011;1107;48.654;9.250;2023-03-16T15:55:16;3.20;;;2.93;;
2201;SDS011;1107;48.654;9.250;2023-03-16T15:57:46;3.60;;;3.30;;
2201;SDS011;1107;48.654;9.250;2023-03-16T16:03:04;2.90;;;2.70;;
2201;SDS011;1107;48.654;9.250;2023-03-16T16:05:32;3.03;;;2.83;;
2201;SDS011;1107;48.654;9.250;2023-03-16T16:08:01;3.73;;;3.53;;
2201;SDS011;1107;48.654;9.250;2023-03-16T16:10:28;7.13;;;6.60;;
2201;SDS011;1107;48.654;9.250;2023-03-16T16:12:57;4.60;;;4.30;;
2201;SDS011;1107;48.654;9.250;2023-03-16T16:15:26;5.80;;;5.50;;
2201;SDS011;1107;48.654;9.250;2023-03-16T16:17:55;6.63;;;6.17;;
2201;SDS011;1107;48.654;9.250;2023-03-16T16:20:23;4.63;;;4.33;;
2201;SDS011;1107;48.654;9.250;2023-03-16T16:22:52;3.47;;;2.83;;
2201;SDS011;1107;48.654;9.250;2023-03-16T16:25:26;3.37;;;2.93;;
2201;SDS011;1107;48.654;9.250;2023-03-16T16:27:55;3.67;;;3.37;;
2201;SDS011;1107;48.654;9.250;2023-03-16T16:30:23;2.90;;;2.70;;
2201;SDS011;1107;48.654;9.250;2023-03-16T16:32:52;3.17;;;2.97;;
2201;SDS011;1107;48.654;9.250;2023-03-16T16:35:21;4.30;;;3.20;;
2201;SDS011;1107;48.654;9.250;2023-03-16T16:37:49;3.57;;;3.27;;
2201;SDS011;1107;48.654;9.250;2023-03-16T16:40:17;4.83;;;3.00;;
2201;SDS011;1107;48.654;9.250;2023-03-16T16:42:47;3.37;;;3.17;;
2201;SDS011;1107;48.654;9.250;2023-03-16T16:45:16;4.27;;;3.40;;
2201;SDS011;1107;48.654;9.250;2023-03-16T16:47:46;3.30;;;3.10;;
2201;SDS011;1107;48.654;9.250;2023-03-16T16:50:17;3.10;;;2.90;;
2201;SDS011;1107;48.654;9.250;2023-03-16T16:52:46;3.67;;;3.47;;
2201;SDS011;1107;48.654;9.250;2023-03-16T16:55:14;3.67;;;3.37;;
2201;SDS011;1107;48.654;9.250;2023-03-16T16:57:41;3.47;;;3.17;;
2201;SDS011;1107;48.654;9.250;2023-03-16T17:00:21;6.50;;;3.40;;
2201;SDS011;1107;48.654;9.250;2023-03-16T17:02:50;3.00;;;2.80;;
2201;SDS011;1107;48.654;9.250;2023-03-16T17:05:19;3.77;;;3.47;;
2201;SDS011;1107;48.654;9.250;2023-03-16T17:07:47;3.10;;;2.90;;
2201;SDS011;1107;48.654;9.250;2023-03-16T17:10:17;3.70;;;3.47;;
2201;SDS011;1107;48.654;9.250;2023-03-16T17:12:46;3.70;;;3.50;;
2201;SDS011;1107;48.654;9.250;2023-03-16T17:15:18;4.20;;;2.90;;
2201;SDS011;1107;48.654;9.250;2023-03-16T17:17:52;4.47;;;3.50;;
2201;SDS011;1107;48.654;9.250;2023-03-16T17:20:24;5.77;;;3.47;;
2201;SDS011;1107;48.654;9.250;2023-03-16T17:22:51;4.20;;;3.90;;
2201;SDS011;1107;48.654;9.250;2023-03-16T17:25:19;4.00;;;3.60;;
2201;SDS011;1107;48.654;9.250;2023-03-16T17:27:47;3.53;;;3.33;;
2201;SDS011;1107;48.654;9.250;2023-03-16T17:30:21;3.67;;;3.47;;
2201;SDS011;1107;48.654;9.250;2023-03-16T17:32:51;4.23;;;3.93;;
2201;SDS011;1107;48.654;9.250;2023-03-16T17:35:18;3.70;;;3.50;;
2201;SDS011;1107;48.654;9.250;2023-03-16T17:37:46;3.60;;;3.30;;
2201;SDS011;1107;48.654;9.250;2023-03-16T17:40:17;4.27;;;4.07;;
2201;SDS011;1107;48.654;9.250;2023-03-16T17:42:46;4.10;;;3.57;;
2201;SDS011;1107;48.654;9.250;2023-03-16T17:45:15;3.80;;;3.60;;
2201;SDS011;1107;48.654;9.250;2023-03-16T17:47:43;8.63;;;4.10;;
2201;SDS011;1107;48.654;9.250;2023-03-16T17:50:16;4.03;;;3.83;;
2201;SDS011;1107;48.654;9.250;2023-03-16T17:52:46;3.70;;;3.50;;
2201;SDS011;1107;48.654;9.250;2023-03-16T17:55:13;3.60;;;3.40;;
2201;SDS011;1107;48.654;9.250;2023-03-16T17:57:45;3.93;;;3.63;;
2201;SDS011;1107;48.654;9.250;2023-03-16T18:00:17;3.70;;;3.50;;
2201;SDS011;1107;48.654;9.250;2023-03-16T18:02:48;3.53;;;3.13;;
2201;SDS011;1107;48.654;9.250;2023-03-16T18:05:19;3.50;;;3.30;;
2201;SDS011;1107;48.654;9.250;2023-03-16T18:07:48;3.70;;;3.50;;
2201;SDS011;1107;48.654;9.250;2023-03-16T18:10:16;3.67;;;3.37;;
2201;SDS011;1107;48.654;9.250;2023-03-16T18:12:45;3.40;;;3.20;;
2201;SDS011;1107;48.654;9.250;2023-03-16T18:15:16;4.00;;;3.70;;
2201;SDS011;1107;48.654;9.250;2023-03-16T18:17:43;3.53;;;3.33;;
2201;SDS011;1107;48.654;9.250;2023-03-16T18:20:22;5.87;;;5.37;;
2201;SDS011;1107;48.654;9.250;2023-03-16T18:22:55;8.30;;;7.40;;
2201;SDS011;1107;48.654;9.250;2023-03-16T18:25:26;11.87;;;9.63;;
2201;SDS011;1107;48.654;9.250;2023-03-16T18:27:58;10.93;;;9.77;;
2201;SDS011;1107;48.654;9.250;2023-03-16T18:30:25;22.63;;;14.10;;
2201;SDS011;1107;48.654;9.250;2023-03-16T18:32:53;5.63;;;5.30;;
2201;SDS011;1107;48.654;9.250;2023-03-16T18:35:22;4.83;;;4.53;;
2201;SDS011;1107;48.654;9.250;2023-03-16T18:37:50;5.23;;;4.93;;
2201;SDS011;1107;48.654;9.250;2023-03-16T18:40:19;5.20;;;4.90;;
2201;SDS011;1107;48.654;9.250;2023-03-16T18:42:46;4.97;;;4.67;;
2201;SDS011;1107;48.654;9.250;2023-03-16T18:45:13;4.43;;;4.13;;
2201;SDS011;1107;48.654;9.250;2023-03-16T18:47:43;4.90;;;4.30;;
2201;SDS011;1107;48.654;9.250;2023-03-16T18:50:17;7.03;;;4.03;;
2201;SDS011;1107;48.654;9.250;2023-03-16T18:52:48;4.40;;;4.10;;
2201;SDS011;1107;48.654;9.250;2023-03-16T18:55:16;3.70;;;3.50;;
2201;SDS011;1107;48.654;9.250;2023-03-16T18:57:45;3.90;;;3.60;;
2201;SDS011;1107;48.654;9.250;2023-03-16T19:00:16;4.70;;;4.30;;
2201;SDS011;1107;48.654;9.250;2023-03-16T19:02:47;4.30;;;4.00;;
2201;SDS011;1107;48.654;9.250;2023-03-16T19:05:18;6.20;;;4.20;;
2201;SDS011;1107;48.654;9.250;2023-03-16T19:07:53;4.85;;;4.55;;
2201;SDS011;1107;48.654;9.250;2023-03-16T19:10:21;4.60;;;4.20;;
2201;SDS011;1107;48.654;9.250;2023-03-16T19:12:50;4.63;;;4.40;;
2201;SDS011;1107;48.654;9.250;2023-03-16T19:15:18;4.73;;;4.10;;
2201;SDS011;1107;48.654;9.250;2023-03-16T19:17:47;10.53;;;5.63;;
2201;SDS011;1107;48.654;9.250;2023-03-16T19:20:15;6.70;;;6.20;;
2201;SDS011;1107;48.654;9.250;2023-03-16T19:22:44;4.10;;;3.90;;
2201;SDS011;1107;48.654;9.250;2023-03-16T19:25:21;4.13;;;3.83;;
2201;SDS011;1107;48.654;9.250;2023-03-16T19:27:50;4.03;;;3.73;;
2201;SDS011;1107;48.654;9.250;2023-03-16T19:30:22;5.97;;;5.57;;
2201;SDS011;1107;48.654;9.250;2023-03-16T19:32:51;6.00;;;5.50;;
2201;SDS011;1107;48.654;9.250;2023-03-16T19:35:19;6.50;;;6.00;;
2201;SDS011;1107;48.654;9.250;2023-03-16T19:37:46;9.07;;;7.40;;
2201;SDS011;1107;48.654;9.250;2023-03-16T19:40:20;6.97;;;6.43;;
2201;SDS011;1107;48.654;9.250;2023-03-16T19:42:49;7.70;;;6.13;;
2201;SDS011;1107;48.654;9.250;2023-03-16T19:45:27;11.97;;;8.70;;
2201;SDS011;1107;48.654;9.250;2023-03-16T19:47:57;6.30;;;5.80;;
2201;SDS011;1107;48.654;9.250;2023-03-16T19:50:25;4.38;;;4.07;;
2201;SDS011;1107;48.654;9.250;2023-03-16T19:52:53;4.30;;;4.00;;
2201;SDS011;1107;48.654;9.250;2023-03-16T19:55:25;6.60;;;4.43;;
2201;SDS011;1107;48.654;9.250;2023-03-16T19:57:57;15.30;;;4.53;;
2201;SDS011;1107;48.654;9.250;2023-03-16T20:00:25;5.40;;;5.00;;
2201;SDS011;1107;48.654;9.250;2023-03-16T20:02:54;5.43;;;5.03;;
2201;SDS011;1107;48.654;9.250;2023-03-16T20:05:23;6.93;;;4.70;;
2201;SDS011;1107;48.654;9.250;2023-03-16T20:07:52;5.10;;;4.80;;
2201;SDS011;1107;48.654;9.250;2023-03-16T20:10:21;6.43;;;5.83;;
2201;SDS011;1107;48.654;9.250;2023-03-16T20:12:52;5.28;;;4.88;;
2201;SDS011;1107;48.654;9.250;2023-03-16T20:15:21;4.43;;;4.13;;
2201;SDS011;1107;48.654;9.250;2023-03-16T20:17:52;4.75;;;4.35;;
2201;SDS011;1107;48.654;9.250;2023-03-16T20:20:21;4.80;;;4.40;;
2201;SDS011;1107;48.654;9.250;2023-03-16T20:22:50;5.10;;;4.70;;
2201;SDS011;1107;48.654;9.250;2023-03-16T20:25:19;4.80;;;4.50;;
2201;SDS011;1107;48.654;9.250;2023-03-16T20:27:49;5.03;;;4.60;;
2201;SDS011;1107;48.654;9.250;2023-03-16T20:30:19;5.22;;;4.82;;
2201;SDS011;1107;48.654;9.250;2023-03-16T20:32:47;5.00;;;4.70;;
2201;SDS011;1107;48.654;9.250;2023-03-16T20:35:15;5.50;;;5.10;;
2201;SDS011;1107;48.654;9.250;2023-03-16T20:37:44;5.60;;;4.93;;
2201;SDS011;1107;48.654;9.250;2023-03-16T20:40:11;5.88;;;4.15;;
2201;SDS011;1107;48.654;9.250;2023-03-16T20:42:38;4.85;;;3.85;;
2201;SDS011;1107;48.654;9.250;2023-03-16T20:45:14;4.72;;;4.43;;
2201;SDS011;1107;48.654;9.250;2023-03-16T20:47:47;3.85;;;3.55;;
2201;SDS011;1107;48.654;9.250;2023-03-16T20:50:16;4.90;;;4.13;;
2201;SDS011;1107;48.654;9.250;2023-03-16T20:52:47;5.20;;;4.40;;
2201;SDS011;1107;48.654;9.250;2023-03-16T20:55:15;4.30;;;4.00;;
2201;SDS011;1107;48.654;9.250;2023-03-16T20:57:43;5.18;;;4.70;;
2201;SDS011;1107;48.654;9.250;2023-03-16T21:00:24;5.00;;;4.70;;
2201;SDS011;1107;48.654;9.250;2023-03-16T21:02:54;4.72;;;4.32;;
2201;SDS011;1107;48.654;9.250;2023-03-16T21:05:22;6.18;;;4.97;;
2201;SDS011;1107;48.654;9.250;2023-03-16T21:07:49;4.88;;;4.57;;
2201;SDS011;1107;48.654;9.250;2023-03-16T21:10:17;4.68;;;4.38;;
2201;SDS011;1107;48.654;9.250;2023-03-16T21:12:46;5.50;;;5.10;;
2201;SDS011;1107;48.654;9.250;2023-03-16T21:15:16;6.10;;;4.72;;
2201;SDS011;1107;48.654;9.250;2023-03-16T21:17:49;8.05;;;7.15;;
2201;SDS011;1107;48.654;9.250;2023-03-16T21:20:21;4.32;;;4.13;;
2201;SDS011;1107;48.654;9.250;2023-03-16T21:22:48;5.70;;;4.63;;
2201;SDS011;1107;48.654;9.250;2023-03-16T21:25:16;8.60;;;7.75;;
2201;SDS011;1107;48.654;9.250;2023-03-16T21:27:45;5.20;;;4.90;;
2201;SDS011;1107;48.654;9.250;2023-03-16T21:32:58;4.95;;;4.65;;
2201;SDS011;1107;48.654;9.250;2023-03-16T21:35:27;9.90;;;5.75;;
2201;SDS011;1107;48.654;9.250;2023-03-16T21:37:58;4.40;;;4.10;;
2201;SDS011;1107;48.654;9.250;2023-03-16T21:40:26;5.68;;;4.95;;
2201;SDS011;1107;48.654;9.250;2023-03-16T21:42:53;5.63;;;5.25;;
2201;SDS011;1107;48.654;9.250;2023-03-16T21:45:20;5.70;;;5.30;;
2201;SDS011;1107;48.654;9.250;2023-03-16T21:47:48;5.53;;;5.23;;
2201;SDS011;1107;48.654;9.250;2023-03-16T21:50:17;4.93;;;4.63;;
2201;SDS011;1107;48.654;9.250;2023-03-16T21:52:46;6.00;;;5.70;;
2201;SDS011;1107;48.654;9.250;2023-03-16T21:55:17;5.80;;;5.40;;
2201;SDS011;1107;48.654;9.250;2023-03-16T21:57:47;6.60;;;6.10;;
2201;SDS011;1107;48.654;9.250;2023-03-16T22:00:18;6.15;;;5.75;;
2201;SDS011;1107;48.654;9.250;2023-03-16T22:02:48;6.13;;;5.72;;
2201;SDS011;1107;48.654;9.250;2023-03-16T22:05:26;10.88;;;9.75;;
2201;SDS011;1107;48.654;9.250;2023-03-16T22:07:56;9.07;;;8.23;;
2201;SDS011;1107;48.654;9.250;2023-03-16T22:10:23;7.50;;;6.75;;
2201;SDS011;1107;48.654;9.250;2023-03-16T22:12:53;8.15;;;7.47;;
2201;SDS011;1107;48.654;9.250;2023-03-16T22:15:20;6.78;;;6.28;;
2201;SDS011;1107;48.654;9.250;2023-03-16T22:17:49;6.60;;;6.00;;
2201;SDS011;1107;48.654;9.250;2023-03-16T22:20:17;4.90;;;4.60;;
2201;SDS011;1107;48.654;9.250;2023-03-16T22:22:47;5.47;;;5.18;;
2201;SDS011;1107;48.654;9.250;2023-03-16T22:25:15;6.20;;;5.70;;
2201;SDS011;1107;48.654;9.250;2023-03-16T22:27:43;5.20;;;4.90;;
2201;SDS011;1107;48.654;9.250;2023-03-16T22:30:15;6.22;;;5.70;;
2201;SDS011;1107;48.654;9.250;2023-03-16T22:32:45;9.02;;;5.40;;
2201;SDS011;1107;48.654;9.250;2023-03-16T22:35:26;5.95;;;5.55;;
2201;SDS011;1107;48.654;9.250;2023-03-16T22:37:58;6.13;;;5.00;;
2201;SDS011;1107;48.654;9.250;2023-03-16T22:40:27;5.90;;;5.50;;
2201;SDS011;1107;48.654;9.250;2023-03-16T22:42:57;5.00;;;4.70;;
2201;SDS011;1107;48.654;9.250;2023-03-16T22:45:28;5.50;;;5.20;;
2201;SDS011;1107;48.654;9.250;2023-03-16T22:47:57;7.05;;;5.35;;
2201;SDS011;1107;48.654;9.250;2023-03-16T22:50:26;6.07;;;5.68;;
2201;SDS011;1107;48.654;9.250;2023-03-16T22:52:58;5.05;;;4.10;;
2201;SDS011;1107;48.654;9.250;2023-03-16T22:55:28;5.50;;;5.10;;
2201;SDS011;1107;48.654;9.250;2023-03-16T22:58:00;5.90;;;5.57;;
2201;SDS011;1107;48.654;9.250;2023-03-16T23:00:31;10.73;;;5.30;;
2201;SDS011;1107;48.654;9.250;2023-03-16T23:02:59;5.50;;;5.20;;
2201;SDS011;1107;48.654;9.250;2023-03-16T23:05:27;5.72;;;5.13;;
2201;SDS011;1107;48.654;9.250;2023-03-16T23:07:55;13.90;;;5.15;;
2201;SDS011;1107;48.654;9.250;2023-03-16T23:10:26;5.50;;;5.20;;
2201;SDS011;1107;48.654;9.250;2023-03-16T23:12:54;6.25;;;5.60;;
2201;SDS011;1107;48.654;9.250;2023-03-16T23:15:25;5.80;;;5.40;;
2201;SDS011;1107;48.654;9.250;2023-03-16T23:17:54;7.50;;;6.82;;
2201;SDS011;1107;48.654;9.250;2023-03-16T23:20:23;7.28;;;6.68;;
2201;SDS011;1107;48.654;9.250;2023-03-16T23:22:51;6.65;;;6.18;;
2201;SDS011;1107;48.654;9.250;2023-03-16T23:25:20;6.47;;;5.97;;
2201;SDS011;1107;48.654;9.250;2023-03-16T23:27:49;6.50;;;6.05;;
2201;SDS011;1107;48.654;9.250;2023-03-16T23:30:18;7.35;;;6.70;;
2201;SDS011;1107;48.654;9.250;2023-03-16T23:32:47;5.80;;;5.30;;
2201;SDS011;1107;48.654;9.250;2023-03-16T23:35:17;6.40;;;5.97;;
2201;SDS011;1107;48.654;9.250;2023-03-16T23:37:46;6.30;;;5.85;;
2201;SDS011;1107;48.654;9.250;2023-03-16T23:40:14;6.40;;;6.10;;
2201;SDS011;1107;48.654;9.250;2023-03-16T23:42:43;6.95;;;6.35;;
2201;SDS011;1107;48.654;9.250;2023-03-16T23:45:14;8.15;;;6.05;;
2201;SDS011;1107;48.654;9.250;2023-03-16T23:47:51;6.15;;;5.75;;
2201;SDS011;1107;48.654;9.250;2023-03-16T23:50:20;5.43;;;5.00;;
2201;SDS011;1107;48.654;9.250;2023-03-16T23:52:50;5.93;;;5.63;;
2201;SDS011;1107;48.654;9.250;2023-03-16T23:55:18;8.93;;;5.22;;
2201;SDS011;1107;48.654;9.250;2023-03-16T23:57:46;5.45;;;5.05;;
